Othello — LXOD — position and weather

sailwx.info

Track history (hours):
 
Tides and Currents Weather Stations Pressure Air Temp Water Temp Dewpoint Dewpoint Depression Visibility Wind Speed Wind Dir Waves Ship Positions

Othello

Last reported at 2016-May-24 15:13 UTC. Time now 2016-May-24 15:48 UTC.
Position N 51°18' E 004°20'.

Length 104 m; draft 7.2 m.

Type: Tanker. MMSI: 253279000.

Date/timePositionNaut miles runAvg speedWind from/ knotsBaromVisibWave heightAir tempDewpointWater temp
2016-May-24 15:13N 51°18' E 004°20'0 0.0
2016-May-24 14:22N 51°18' E 004°20'0 0.0
2016-May-24 13:31N 51°18' E 004°20'0 0.0
2016-May-24 12:31N 51°18' E 004°20'0 0.0
2016-May-24 11:31N 51°18' E 004°20'0 0.0
2016-May-24 10:31N 51°18' E 004°20'0 0.0
2016-May-24 09:31N 51°18' E 004°20'0 0.0
2016-May-24 08:19N 51°18' E 004°20'0 0.0
2016-May-24 07:28N 51°18' E 004°20'0 0.0
2016-May-24 06:31N 51°18' E 004°20'0 0.0
2016-May-24 05:31N 51°18' E 004°20'2 2.3
2016-May-24 04:33N 51°20' E 004°18'1 1.4
2016-May-24 03:33N 51°21' E 004°17'4 3.9
2016-May-24 02:33N 51°23' E 004°13'10 9.9
2016-May-24 01:34N 51°23' E 003°57'1211.7
2016-May-24 00:34N 51°26' E 003°39'1110.9
2016-May-23 23:33N 51°24' E 003°21'1212.3
2016-May-23 22:33N 51°24' E 003°01'1110.8
2016-May-23 21:33N 51°21' E 002°45'8 1.9
2016-May-23 17:32N 51°20' E 002°32'1 0.9
2016-May-23 16:30N 51°21' E 002°33'1212.1
2016-May-23 15:33N 51°17' E 002°16'1414.1
2016-May-23 14:33N 51°10' E 001°56'1514.8
2016-May-23 13:33N 51°01' E 001°38'5613.5
2016-May-23 09:26N 50°24' E 000°31'1314.7
2016-May-23 08:33N 50°21' E 000°11'1414.1
2016-May-23 07:33N 50°17' W 000°10'1313.4
2016-May-23 06:33N 50°14' W 000°30'1312.5
2016-May-23 05:31N 50°10' W 000°50'1211.2
2016-May-23 04:28N 50°07' W 001°07'6510.5
2016-May-22 22:19N 49°49' W 002°44'1513.3
2016-May-22 21:09N 49°44' W 003°07'813.5
2016-May-22 20:33N 49°40' W 003°17'8614.1
2016-May-22 14:27N 48°57' W 005°11'1313.5
2016-May-22 13:29N 48°50' W 005°28'61012.0
2016-May-20 10:27N 39°10' W 009°55'910.3
2016-May-20 09:33N 39°01' W 009°56'1010.4
2016-May-20 08:33N 38°51' W 009°56'1010.0
2016-May-20 07:33N 38°41' W 009°54'10 9.7
2016-May-20 06:33N 38°31' W 009°53'10 9.7
2016-May-20 05:33N 38°22' W 009°50'9 9.1
2016-May-20 04:33N 38°13' W 009°48'9 9.1
2016-May-20 03:33N 38°04' W 009°45'9 8.8
2016-May-20 02:33N 37°55' W 009°43'9 8.8
2016-May-20 01:32N 37°46' W 009°40'9 8.9
2016-May-20 00:33N 37°38' W 009°38'10 8.6
2016-May-19 23:24N 37°28' W 009°35'73 8.3
2016-May-19 14:33N 36°46' W 008°20'1812.9
2016-May-19 13:07N 36°51' W 007°57'712.8
2016-May-19 12:33N 36°52' W 007°49'1313.3
2016-May-19 11:34N 36°56' W 007°32'1413.6
2016-May-19 10:31N 36°59' W 007°15'20 0.7
2016-May-18 05:24N 37°10' W 006°54'7 6.3
2016-May-18 04:20N 37°05' W 006°49'92 7.8
2016-May-17 16:33N 36°00' W 005°28'1110.6
2016-May-17 15:33N 36°03' W 005°15'14511.1
2016-May-17 02:29N 36°26' W 002°18'1411.9
2016-May-17 01:16N 36°27' W 001°60'3312.1
2016-May-16 22:31N 36°33' W 001°19'1412.3
2016-May-16 21:22N 36°35' W 001°02'1012.1
2016-May-16 20:33N 36°37' W 000°50'2512.3
2016-May-16 18:32N 36°40' W 000°19'1212.3
2016-May-16 17:33N 36°42' W 000°04'1212.3
2016-May-16 16:33N 36°44' E 000°11'1212.2
2016-May-16 15:33N 36°46' E 000°26'11811.8
2016-May-16 05:32N 37°04' E 002°52'7211.1
2016-May-15 23:04N 37°15' E 004°21'  
Track history (hours):
 
Tides and Currents Weather Stations Pressure Air Temp Water Temp Dewpoint Dewpoint Depression Visibility Wind Speed Wind Dir Waves Ship Positions

Othello

Last reported at 2016-May-24 15:13 UTC. Time now 2016-May-24 15:48 UTC.
Position N 51°18' E 004°20'.

Length 104 m; draft 7.2 m.

Type: Tanker. MMSI: 253279000.

Date/timePositionNaut miles runAvg speedWind from/ knotsBaromVisibWave heightAir tempDewpointWater temp
2016-May-24 15:13N 51°18' E 004°20'0 0.0
2016-May-24 14:22N 51°18' E 004°20'0 0.0
2016-May-24 13:31N 51°18' E 004°20'0 0.0
2016-May-24 12:31N 51°18' E 004°20'0 0.0
2016-May-24 11:31N 51°18' E 004°20'0 0.0
2016-May-24 10:31N 51°18' E 004°20'0 0.0
2016-May-24 09:31N 51°18' E 004°20'0 0.0
2016-May-24 08:19N 51°18' E 004°20'0 0.0
2016-May-24 07:28N 51°18' E 004°20'0 0.0
2016-May-24 06:31N 51°18' E 004°20'0 0.0
2016-May-24 05:31N 51°18' E 004°20'2 2.3
2016-May-24 04:33N 51°20' E 004°18'1 1.4
2016-May-24 03:33N 51°21' E 004°17'4 3.9
2016-May-24 02:33N 51°23' E 004°13'10 9.9
2016-May-24 01:34N 51°23' E 003°57'1211.7
2016-May-24 00:34N 51°26' E 003°39'1110.9
2016-May-23 23:33N 51°24' E 003°21'1212.3
2016-May-23 22:33N 51°24' E 003°01'1110.8
2016-May-23 21:33N 51°21' E 002°45'8 1.9
2016-May-23 17:32N 51°20' E 002°32'1 0.9
2016-May-23 16:30N 51°21' E 002°33'1212.1
2016-May-23 15:33N 51°17' E 002°16'1414.1
2016-May-23 14:33N 51°10' E 001°56'1514.8
2016-May-23 13:33N 51°01' E 001°38'5613.5
2016-May-23 09:26N 50°24' E 000°31'1314.7
2016-May-23 08:33N 50°21' E 000°11'1414.1
2016-May-23 07:33N 50°17' W 000°10'1313.4
2016-May-23 06:33N 50°14' W 000°30'1312.5
2016-May-23 05:31N 50°10' W 000°50'1211.2
2016-May-23 04:28N 50°07' W 001°07'6510.5
2016-May-22 22:19N 49°49' W 002°44'1513.3
2016-May-22 21:09N 49°44' W 003°07'813.5
2016-May-22 20:33N 49°40' W 003°17'8614.1
2016-May-22 14:27N 48°57' W 005°11'1313.5
2016-May-22 13:29N 48°50' W 005°28'61012.0
2016-May-20 10:27N 39°10' W 009°55'910.3
2016-May-20 09:33N 39°01' W 009°56'1010.4
2016-May-20 08:33N 38°51' W 009°56'1010.0
2016-May-20 07:33N 38°41' W 009°54'10 9.7
2016-May-20 06:33N 38°31' W 009°53'10 9.7
2016-May-20 05:33N 38°22' W 009°50'9 9.1
2016-May-20 04:33N 38°13' W 009°48'9 9.1
2016-May-20 03:33N 38°04' W 009°45'9 8.8
2016-May-20 02:33N 37°55' W 009°43'9 8.8
2016-May-20 01:32N 37°46' W 009°40'9 8.9
2016-May-20 00:33N 37°38' W 009°38'10 8.6
2016-May-19 23:24N 37°28' W 009°35'73 8.3
2016-May-19 14:33N 36°46' W 008°20'1812.9
2016-May-19 13:07N 36°51' W 007°57'712.8
2016-May-19 12:33N 36°52' W 007°49'1313.3
2016-May-19 11:34N 36°56' W 007°32'1413.6
2016-May-19 10:31N 36°59' W 007°15'20 0.7
2016-May-18 05:24N 37°10' W 006°54'7 6.3
2016-May-18 04:20N 37°05' W 006°49'92 7.8
2016-May-17 16:33N 36°00' W 005°28'1110.6
2016-May-17 15:33N 36°03' W 005°15'14511.1
2016-May-17 02:29N 36°26' W 002°18'1411.9
2016-May-17 01:16N 36°27' W 001°60'3312.1
2016-May-16 22:31N 36°33' W 001°19'1412.3
2016-May-16 21:22N 36°35' W 001°02'1012.1
2016-May-16 20:33N 36°37' W 000°50'2512.3
2016-May-16 18:32N 36°40' W 000°19'1212.3
2016-May-16 17:33N 36°42' W 000°04'1212.3
2016-May-16 16:33N 36°44' E 000°11'1212.2
2016-May-16 15:33N 36°46' E 000°26'11811.8
2016-May-16 05:32N 37°04' E 002°52'7211.1
2016-May-15 23:04N 37°15' E 004°21'  

Dump ship's entire track history